createdAt,value
2022-10-15T00:01:24.066Z,21.98
2022-10-15T00:03:51.237Z,21.40
2022-10-15T00:06:21.320Z,21.83
2022-10-15T00:08:48.880Z,21.30
2022-10-15T00:11:22.682Z,20.43
2022-10-15T00:13:50.974Z,23.52
2022-10-15T00:16:21.723Z,21.17
2022-10-15T00:18:49.663Z,22.73
2022-10-15T00:21:21.316Z,23.90
2022-10-15T00:23:49.399Z,22.77
2022-10-15T00:26:21.002Z,24.70
2022-10-15T00:28:51.195Z,22.50
2022-10-15T00:31:21.082Z,25.10
2022-10-15T00:33:51.268Z,23.83
2022-10-15T00:36:24.680Z,23.20
2022-10-15T00:38:52.327Z,24.38
2022-10-15T00:41:30.545Z,25.50
2022-10-15T00:44:23.085Z,24.52
2022-10-15T00:46:54.873Z,23.50
2022-10-15T00:49:44.565Z,24.20
2022-10-15T00:52:18.905Z,24.20
2022-10-15T00:54:55.083Z,23.38
2022-10-15T00:57:22.484Z,24.65
2022-10-15T00:59:54.289Z,23.67
2022-10-15T01:02:21.980Z,24.95
2022-10-15T01:04:50.150Z,25.17
2022-10-15T01:09:50.094Z,28.52
2022-10-15T01:12:42.579Z,27.20
2022-10-15T01:15:18.666Z,30.83
2022-10-15T01:17:59.987Z,29.55
2022-10-15T01:20:58.346Z,31.17
2022-10-15T01:24:07.749Z,30.80
2022-10-15T01:27:36.095Z,31.10
2022-10-15T01:30:25.740Z,31.88
2022-10-15T01:33:38.476Z,31.05
2022-10-15T01:36:18.207Z,31.17
2022-10-15T01:39:23.741Z,32.13
2022-10-15T01:42:00.270Z,32.58
2022-10-15T01:44:40.373Z,32.47
2022-10-15T01:47:15.419Z,31.20
2022-10-15T01:49:48.007Z,33.70
2022-10-15T01:52:25.586Z,33.58
2022-10-15T01:54:53.725Z,34.15
2022-10-15T01:57:22.588Z,33.40
2022-10-15T01:59:49.902Z,34.50
2022-10-15T02:02:17.562Z,34.10
2022-10-15T02:04:44.894Z,35.20
2022-10-15T02:07:32.235Z,35.40
2022-10-15T02:10:19.494Z,34.85
2022-10-15T02:12:55.079Z,33.47
2022-10-15T02:15:53.357Z,34.78
2022-10-15T02:18:55.561Z,33.08
2022-10-15T02:21:47.347Z,34.15
2022-10-15T02:24:19.854Z,33.17
2022-10-15T02:26:48.132Z,32.58
2022-10-15T02:29:21.379Z,31.95
2022-10-15T02:31:50.355Z,32.75
2022-10-15T02:34:25.672Z,32.88
2022-10-15T02:36:55.094Z,31.92
2022-10-15T02:39:24.495Z,30.02
2022-10-15T02:41:53.479Z,31.80
2022-10-15T02:44:21.580Z,31.75
2022-10-15T02:46:48.861Z,30.50
2022-10-15T02:49:15.909Z,30.20
2022-10-15T02:51:43.191Z,29.40
2022-10-15T02:54:10.450Z,30.60
2022-10-15T02:56:39.669Z,30.25
2022-10-15T02:59:07.337Z,30.40
2022-10-15T03:01:35.835Z,29.55
2022-10-15T03:04:03.244Z,29.83
2022-10-15T03:06:32.660Z,29.17
2022-10-15T03:08:59.678Z,28.33
2022-10-15T03:11:26.672Z,29.90
2022-10-15T03:13:53.820Z,29.45
2022-10-15T03:16:21.248Z,28.55
2022-10-15T03:18:48.280Z,28.30
2022-10-15T03:21:15.383Z,29.15
2022-10-15T03:23:42.572Z,29.15
2022-10-15T03:26:10.019Z,29.98
2022-10-15T03:28:37.112Z,30.48
2022-10-15T03:31:04.201Z,30.63
2022-10-15T03:33:31.229Z,32.10
2022-10-15T03:35:58.525Z,31.23
2022-10-15T03:38:25.608Z,32.40
2022-10-15T03:40:52.644Z,33.00
2022-10-15T03:43:19.682Z,31.60
2022-10-15T03:45:46.823Z,34.22
2022-10-15T03:48:13.817Z,32.55
2022-10-15T03:50:41.104Z,33.65
2022-10-15T03:53:08.212Z,34.92
2022-10-15T03:55:35.423Z,33.80
2022-10-15T03:58:02.735Z,32.45
2022-10-15T04:00:29.946Z,33.80
2022-10-15T04:02:57.026Z,33.78
2022-10-15T04:05:23.986Z,33.72
2022-10-15T04:07:51.060Z,35.15
2022-10-15T04:10:18.037Z,34.22
2022-10-15T04:12:45.289Z,35.78
2022-10-15T04:15:12.341Z,34.22
2022-10-15T04:17:39.479Z,35.63
2022-10-15T04:20:07.348Z,36.05
2022-10-15T04:22:34.548Z,34.80
2022-10-15T04:25:01.671Z,37.15
2022-10-15T04:27:29.050Z,34.88
2022-10-15T04:29:56.203Z,37.13
2022-10-15T04:32:23.412Z,36.78
2022-10-15T04:34:50.702Z,36.65
2022-10-15T04:37:17.798Z,37.45
2022-10-15T04:39:44.782Z,36.75
2022-10-15T04:42:11.847Z,37.35
2022-10-15T04:44:38.927Z,36.88
2022-10-15T04:47:06.132Z,38.25
2022-10-15T04:49:33.261Z,40.20
2022-10-15T04:52:00.288Z,40.05
2022-10-15T04:56:54.384Z,37.90
2022-10-15T04:59:21.488Z,38.80
2022-10-15T05:01:48.526Z,36.03
2022-10-15T05:04:15.512Z,37.60
2022-10-15T05:06:42.549Z,38.53
2022-10-15T05:09:09.594Z,40.13
2022-10-15T05:11:38.271Z,38.42
2022-10-15T05:14:06.508Z,39.88
2022-10-15T05:16:34.043Z,39.33
2022-10-15T05:19:08.779Z,37.30
2022-10-15T05:21:36.502Z,39.92
2022-10-15T05:24:05.473Z,35.33
2022-10-15T05:26:32.957Z,38.08
2022-10-15T05:29:01.189Z,37.70
2022-10-15T05:31:31.301Z,36.28
2022-10-15T05:33:59.369Z,36.50
2022-10-15T05:36:30.254Z,36.53
2022-10-15T05:39:02.998Z,34.67
2022-10-15T05:41:30.863Z,34.45
2022-10-15T05:43:59.373Z,33.58
2022-10-15T05:46:26.439Z,35.50
2022-10-15T05:48:56.906Z,34.83
2022-10-15T05:51:26.561Z,32.72
2022-10-15T05:53:58.306Z,32.50
2022-10-15T05:56:26.360Z,31.58
2022-10-15T05:58:53.539Z,30.85
2022-10-15T06:01:20.736Z,32.00
2022-10-15T06:03:47.946Z,29.70
2022-10-15T06:06:21.601Z,29.98
2022-10-15T06:08:49.334Z,28.88
2022-10-15T06:11:17.414Z,29.38
2022-10-15T06:13:46.173Z,31.10
2022-10-15T06:16:21.138Z,28.92
2022-10-15T06:18:53.638Z,29.73
2022-10-15T06:21:21.275Z,27.77
2022-10-15T06:23:48.359Z,29.98
2022-10-15T06:26:15.493Z,29.38
2022-10-15T06:28:43.357Z,27.98
2022-10-15T06:31:10.789Z,27.30
2022-10-15T06:33:38.177Z,27.35
2022-10-15T06:36:10.116Z,28.77
2022-10-15T06:38:37.553Z,28.70
2022-10-15T06:41:06.661Z,26.45
2022-10-15T06:43:38.300Z,25.48
2022-10-15T06:46:06.776Z,28.23
2022-10-15T06:48:34.656Z,27.38
2022-10-15T06:51:03.459Z,27.77
2022-10-15T06:53:32.138Z,26.60
2022-10-15T06:56:01.717Z,28.15
2022-10-15T06:58:28.977Z,26.98
2022-10-15T07:01:04.906Z,27.13
2022-10-15T07:03:32.711Z,26.75
2022-10-15T07:06:05.617Z,25.33
2022-10-15T07:08:33.380Z,27.73
2022-10-15T07:11:06.341Z,25.80
2022-10-15T07:13:33.681Z,26.02
2022-10-15T07:16:08.529Z,25.33
2022-10-15T07:18:36.167Z,24.55
2022-10-15T07:21:06.224Z,24.45
2022-10-15T07:23:33.615Z,24.15
2022-10-15T07:26:01.512Z,22.73
2022-10-15T07:28:28.574Z,23.08
2022-10-15T07:30:59.751Z,22.73
2022-10-15T07:33:26.772Z,23.30
2022-10-15T07:35:53.826Z,19.80
2022-10-15T07:38:20.898Z,20.40
2022-10-15T07:40:47.925Z,19.92
2022-10-15T07:43:16.755Z,18.55
2022-10-15T07:45:51.809Z,17.92
2022-10-15T07:48:19.286Z,16.65
2022-10-15T07:50:53.573Z,17.13
2022-10-15T07:53:22.662Z,16.33
2022-10-15T07:55:51.351Z,14.70
2022-10-15T07:58:18.761Z,14.77
2022-10-15T08:00:46.809Z,13.55
2022-10-15T08:03:13.864Z,13.60
2022-10-15T08:05:40.865Z,12.27
2022-10-15T08:08:07.855Z,12.50
2022-10-15T08:10:36.850Z,12.18
2022-10-15T08:13:03.894Z,11.13
2022-10-15T08:15:30.967Z,9.75
2022-10-15T08:17:59.822Z,9.65
2022-10-15T08:20:27.055Z,9.32
2022-10-15T08:22:54.067Z,9.18
2022-10-15T08:25:21.195Z,7.78
2022-10-15T08:27:48.302Z,8.32
2022-10-15T08:30:18.179Z,8.52
2022-10-15T08:32:47.543Z,8.35
2022-10-15T08:35:15.424Z,7.70
2022-10-15T08:37:43.580Z,7.68
2022-10-15T08:40:12.608Z,7.22
2022-10-15T08:42:43.929Z,6.20
2022-10-15T08:45:28.530Z,5.97
2022-10-15T08:48:12.597Z,6.88
2022-10-15T08:50:53.294Z,6.47
2022-10-15T08:53:23.903Z,6.32
2022-10-15T08:55:56.966Z,6.15
2022-10-15T08:58:53.106Z,6.28
2022-10-15T09:01:35.188Z,5.82
2022-10-15T09:04:33.603Z,5.57
2022-10-15T09:07:35.088Z,5.68
2022-10-15T09:10:18.250Z,5.47
2022-10-15T09:13:02.955Z,4.90
2022-10-15T09:15:37.905Z,4.80
2022-10-15T09:18:06.355Z,3.95
2022-10-15T09:20:36.641Z,3.08
2022-10-15T09:23:03.802Z,3.50
2022-10-15T09:25:46.507Z,3.42
2022-10-15T09:28:20.118Z,3.03
2022-10-15T09:30:55.669Z,2.70
2022-10-15T09:33:33.577Z,2.65
2022-10-15T09:36:32.854Z,2.72
2022-10-15T09:39:37.711Z,2.38
2022-10-15T09:42:27.730Z,2.47
2022-10-15T09:44:57.820Z,2.25
2022-10-15T09:47:29.479Z,2.08
2022-10-15T09:49:58.072Z,2.25
2022-10-15T09:52:44.671Z,2.00
2022-10-15T09:55:35.191Z,1.60
2022-10-15T09:58:26.465Z,1.70
2022-10-15T10:01:24.015Z,1.60
2022-10-15T10:04:15.248Z,1.60
2022-10-15T10:06:55.165Z,1.33
2022-10-15T10:09:54.889Z,1.27
2022-10-15T10:12:43.762Z,1.23
2022-10-15T10:15:55.856Z,1.23
2022-10-15T10:18:26.179Z,1.40
2022-10-15T10:21:04.030Z,1.23
2022-10-15T10:23:39.516Z,1.02
2022-10-15T10:26:10.841Z,1.20
2022-10-15T10:28:49.602Z,0.88
2022-10-15T10:31:17.283Z,1.00
2022-10-15T10:33:51.288Z,1.40
2022-10-15T10:36:31.701Z,1.08
2022-10-15T10:39:10.726Z,0.90
2022-10-15T10:41:58.975Z,1.00
2022-10-15T10:44:36.531Z,0.90
2022-10-15T10:47:27.786Z,0.70
2022-10-15T10:49:58.476Z,0.88
2022-10-15T10:52:35.249Z,0.90
2022-10-15T10:55:13.862Z,0.77
2022-10-15T10:58:02.212Z,0.90
2022-10-15T11:00:35.033Z,0.77
2022-10-15T11:03:02.316Z,0.73
2022-10-15T11:05:33.124Z,0.55
2022-10-15T11:08:57.465Z,0.68
2022-10-15T11:11:42.818Z,0.70
2022-10-15T11:14:19.502Z,0.50
2022-10-15T11:16:55.220Z,0.60
2022-10-15T11:20:26.673Z,0.60
2022-10-15T11:23:40.370Z,0.50
2022-10-15T11:27:11.438Z,0.80
2022-10-15T11:30:02.670Z,0.55
2022-10-15T11:33:15.660Z,0.70
2022-10-15T11:35:53.488Z,0.70
2022-10-15T11:38:48.346Z,0.70
2022-10-15T11:41:59.339Z,0.73
2022-10-15T11:44:56.267Z,1.02
2022-10-15T11:47:44.045Z,0.80
2022-10-15T11:50:41.916Z,0.70
2022-10-15T11:53:42.593Z,0.80
2022-10-15T11:56:25.236Z,0.90
2022-10-15T11:59:00.685Z,1.00
2022-10-15T12:01:37.829Z,1.00
2022-10-15T12:04:56.116Z,0.90
2022-10-15T12:07:43.121Z,0.90
2022-10-15T12:10:40.726Z,0.88
2022-10-15T12:13:25.693Z,0.90
2022-10-15T12:16:21.347Z,0.70
2022-10-15T12:18:55.835Z,0.82
2022-10-15T12:21:44.262Z,0.60
2022-10-15T12:24:44.482Z,0.77
2022-10-15T12:27:20.365Z,0.65
2022-10-15T12:30:11.986Z,0.70
2022-10-15T12:32:48.761Z,0.50
2022-10-15T12:35:15.847Z,0.50
2022-10-15T12:37:49.938Z,0.60
2022-10-15T12:40:22.876Z,0.60
2022-10-15T12:42:54.361Z,0.60
2022-10-15T12:45:39.007Z,0.60
2022-10-15T12:48:16.277Z,0.70
2022-10-15T12:50:45.066Z,0.65
2022-10-15T12:56:10.552Z,0.70
2022-10-15T12:58:40.220Z,0.70
2022-10-15T13:01:16.446Z,0.60
2022-10-15T13:03:52.460Z,0.80
2022-10-15T13:06:25.248Z,0.80
2022-10-15T13:09:10.393Z,0.95
2022-10-15T13:11:49.420Z,0.80
2022-10-15T13:14:39.690Z,0.85
2022-10-15T13:17:20.927Z,1.00
2022-10-15T13:19:59.456Z,0.90
2022-10-15T13:22:29.908Z,0.80
2022-10-15T13:24:57.880Z,0.90
2022-10-15T13:27:34.528Z,0.80
2022-10-15T13:30:07.057Z,1.00
2022-10-15T13:32:40.607Z,1.00
2022-10-15T13:35:17.211Z,1.05
2022-10-15T13:37:47.011Z,0.90
2022-10-15T13:40:32.814Z,1.00
2022-10-15T13:43:19.241Z,0.93
2022-10-15T13:45:53.434Z,0.88
2022-10-15T13:48:25.162Z,1.02
2022-10-15T13:51:05.069Z,0.90
2022-10-15T13:53:40.212Z,1.00
2022-10-15T13:56:36.870Z,1.30
2022-10-15T13:59:04.771Z,1.20
2022-10-15T14:01:34.843Z,1.10
2022-10-15T14:04:04.020Z,1.20
2022-10-15T14:06:38.594Z,1.00
2022-10-15T14:09:19.413Z,0.90
2022-10-15T14:11:46.493Z,0.80
2022-10-15T14:14:36.688Z,0.80
2022-10-15T14:17:27.607Z,0.80
2022-10-15T14:20:25.934Z,0.80
2022-10-15T14:22:51.400Z,0.68
2022-10-15T14:25:25.788Z,0.77
2022-10-15T14:27:53.179Z,0.50
2022-10-15T14:30:39.454Z,0.50
2022-10-15T14:33:34.592Z,0.47
2022-10-15T14:36:20.032Z,0.30
2022-10-15T14:38:47.066Z,0.60
2022-10-15T14:41:32.396Z,0.30
2022-10-15T14:44:20.337Z,0.30
2022-10-15T14:46:52.346Z,0.40
2022-10-15T14:49:33.222Z,0.40
2022-10-15T14:52:17.299Z,0.40
2022-10-15T14:55:13.779Z,0.63
2022-10-15T14:57:44.650Z,0.40
2022-10-15T15:00:24.646Z,0.32
2022-10-15T15:02:52.158Z,0.30
2022-10-15T15:05:23.821Z,0.40
2022-10-15T15:07:51.492Z,0.40
2022-10-15T15:10:19.734Z,0.40
2022-10-15T15:12:53.002Z,0.40
2022-10-15T15:15:24.030Z,0.47
2022-10-15T15:17:51.394Z,0.50
2022-10-15T15:20:22.733Z,0.40
2022-10-15T15:22:54.105Z,0.45
2022-10-15T15:25:29.760Z,0.50
2022-10-15T15:27:57.896Z,0.50
2022-10-15T15:30:27.306Z,0.75
2022-10-15T15:32:54.566Z,0.30
2022-10-15T15:35:36.935Z,0.55
2022-10-15T15:38:08.781Z,0.50
2022-10-15T15:40:36.620Z,0.60
2022-10-15T15:43:03.842Z,0.50
2022-10-15T15:45:30.852Z,0.70
2022-10-15T15:48:02.157Z,0.50
2022-10-15T15:50:29.751Z,0.60
2022-10-15T15:52:56.867Z,0.60
2022-10-15T15:55:24.235Z,0.70
2022-10-15T15:57:51.504Z,0.50
2022-10-15T16:00:19.116Z,0.60
2022-10-15T16:02:47.302Z,0.63
2022-10-15T16:05:16.539Z,0.50
2022-10-15T16:07:44.681Z,0.65
2022-10-15T16:10:12.666Z,0.70
2022-10-15T16:12:40.626Z,0.70
2022-10-15T16:15:11.648Z,0.88
2022-10-15T16:17:41.556Z,0.88
2022-10-15T16:20:09.882Z,1.00
2022-10-15T16:22:37.018Z,1.00
2022-10-15T16:25:04.413Z,1.08
2022-10-15T16:27:32.808Z,1.60
2022-10-15T16:30:00.733Z,1.30
2022-10-15T16:32:27.823Z,1.40
2022-10-15T16:34:54.764Z,1.60
2022-10-15T16:37:21.821Z,1.70
2022-10-15T16:39:49.051Z,1.25
2022-10-15T16:44:44.299Z,3.15
2022-10-15T16:47:11.285Z,3.22
2022-10-15T16:49:38.260Z,1.95
2022-10-15T16:52:05.378Z,2.13
2022-10-15T16:54:32.355Z,2.28
2022-10-15T16:56:59.353Z,2.17
2022-10-15T16:59:29.088Z,2.08
2022-10-15T17:01:56.779Z,2.35
2022-10-15T17:04:23.867Z,1.92
2022-10-15T17:06:50.893Z,1.70
2022-10-15T17:09:17.959Z,2.13
2022-10-15T17:11:47.014Z,2.08
2022-10-15T17:14:16.250Z,4.05
2022-10-15T17:16:51.952Z,4.80
2022-10-15T17:19:29.098Z,4.43
2022-10-15T17:21:59.178Z,4.90
2022-10-15T17:24:26.217Z,5.38
2022-10-15T17:26:54.799Z,4.97
2022-10-15T17:29:23.317Z,3.45
2022-10-15T17:31:51.376Z,2.63
2022-10-15T17:34:18.924Z,3.28
2022-10-15T17:36:48.786Z,3.05
2022-10-15T17:39:19.891Z,3.05
2022-10-15T17:41:47.326Z,2.83
2022-10-15T17:44:14.887Z,2.85
2022-10-15T17:46:42.112Z,3.50
2022-10-15T17:49:11.191Z,2.70
2022-10-15T17:51:38.375Z,4.65
2022-10-15T17:54:05.697Z,4.15
2022-10-15T17:56:36.021Z,4.85
2022-10-15T17:59:06.392Z,4.43
2022-10-15T18:01:57.278Z,4.63
2022-10-15T18:04:23.934Z,6.03
2022-10-15T18:06:50.915Z,5.07
2022-10-15T18:09:17.895Z,4.88
2022-10-15T18:11:46.487Z,3.67
2022-10-15T18:14:13.560Z,3.63
2022-10-15T18:16:40.615Z,4.25
2022-10-15T18:19:08.009Z,3.75
2022-10-15T18:21:35.260Z,2.88
2022-10-15T18:24:02.368Z,2.85
2022-10-15T18:26:29.352Z,2.80
2022-10-15T18:28:56.442Z,2.15
2022-10-15T18:31:26.150Z,2.30
2022-10-15T18:33:56.012Z,2.35
2022-10-15T18:36:30.492Z,2.70
2022-10-15T18:38:58.750Z,2.55
2022-10-15T18:41:33.821Z,2.45
2022-10-15T18:44:05.118Z,2.80
2022-10-15T18:46:34.149Z,2.65
2022-10-15T18:49:02.579Z,2.30
2022-10-15T18:51:30.152Z,2.15
2022-10-15T18:53:58.458Z,1.70
2022-10-15T18:56:25.550Z,1.70
2022-10-15T18:58:52.596Z,2.67
2022-10-15T19:01:28.916Z,2.35
2022-10-15T19:03:57.866Z,2.10
2022-10-15T19:06:29.310Z,2.22
2022-10-15T19:09:01.086Z,2.00
2022-10-15T19:11:29.155Z,1.92
2022-10-15T19:14:01.000Z,2.17
2022-10-15T19:16:28.989Z,1.80
2022-10-15T19:18:56.640Z,1.52
2022-10-15T19:21:24.089Z,1.83
2022-10-15T19:23:51.016Z,1.40
2022-10-15T19:26:18.303Z,1.60
2022-10-15T19:28:46.892Z,1.85
2022-10-15T19:31:31.446Z,1.60
2022-10-15T19:33:59.138Z,2.00
2022-10-15T19:36:31.876Z,1.50
2022-10-15T19:39:03.945Z,1.90
2022-10-15T19:41:30.967Z,1.90
2022-10-15T19:43:57.991Z,2.13
2022-10-15T19:46:26.785Z,1.65
2022-10-15T19:48:53.794Z,1.75
2022-10-15T19:51:20.790Z,1.75
2022-10-15T19:53:52.121Z,1.52
2022-10-15T19:56:19.230Z,1.83
2022-10-15T19:58:46.392Z,1.77
2022-10-15T20:01:13.442Z,1.90
2022-10-15T20:03:40.522Z,2.25
2022-10-15T20:06:08.804Z,4.88
2022-10-15T20:08:36.717Z,4.72
2022-10-15T20:11:08.002Z,4.97
2022-10-15T20:13:36.067Z,4.97
2022-10-15T20:16:09.014Z,5.70
2022-10-15T20:18:36.680Z,6.07
2022-10-15T20:21:12.594Z,5.72
2022-10-15T20:23:41.365Z,6.25
2022-10-15T20:26:12.469Z,6.78
2022-10-15T20:28:42.462Z,5.85
2022-10-15T20:31:16.253Z,5.90
2022-10-15T20:33:44.225Z,5.75
2022-10-15T20:36:21.182Z,6.15
2022-10-15T20:38:51.559Z,7.45
2022-10-15T20:41:19.280Z,7.90
2022-10-15T20:43:47.260Z,6.53
2022-10-15T20:46:19.788Z,6.07
2022-10-15T20:48:47.109Z,9.15
2022-10-15T20:51:18.172Z,9.38
2022-10-15T20:53:46.315Z,12.40
2022-10-15T20:56:14.036Z,12.73
2022-10-15T20:58:41.736Z,10.88
2022-10-15T21:01:10.194Z,8.55
2022-10-15T21:03:37.296Z,5.22
2022-10-15T21:06:04.488Z,4.22
2022-10-15T21:08:31.531Z,3.70
2022-10-15T21:11:07.047Z,3.35
2022-10-15T21:13:34.444Z,3.45
2022-10-15T21:16:03.540Z,3.25
2022-10-15T21:18:31.260Z,2.85
2022-10-15T21:21:12.662Z,3.03
2022-10-15T21:23:42.152Z,4.10
2022-10-15T21:26:13.395Z,2.90
2022-10-15T21:28:41.157Z,3.53
2022-10-15T21:31:14.694Z,3.22
2022-10-15T21:33:42.593Z,2.58
2022-10-15T21:36:21.807Z,3.05
2022-10-15T21:38:59.749Z,2.40
2022-10-15T21:41:30.701Z,2.92
2022-10-15T21:44:00.366Z,3.75
2022-10-15T21:46:28.388Z,3.70
2022-10-15T21:48:55.634Z,2.95
2022-10-15T21:51:27.009Z,3.47
2022-10-15T21:53:55.459Z,3.67
2022-10-15T21:56:23.168Z,3.95
2022-10-15T21:58:50.952Z,4.38
2022-10-15T22:01:31.121Z,3.88
2022-10-15T22:04:05.379Z,4.23
2022-10-15T22:06:33.312Z,4.45
2022-10-15T22:09:01.667Z,4.40
2022-10-15T22:11:31.677Z,3.60
2022-10-15T22:14:01.906Z,6.03
2022-10-15T22:16:30.598Z,5.55
2022-10-15T22:18:57.619Z,6.45
2022-10-15T22:21:31.243Z,8.03
2022-10-15T22:24:01.906Z,6.30
2022-10-15T22:26:32.289Z,5.82
2022-10-15T22:29:01.477Z,4.40
2022-10-15T22:31:29.829Z,3.72
2022-10-15T22:33:58.477Z,3.90
2022-10-15T22:36:29.203Z,3.97
2022-10-15T22:39:03.466Z,4.57
2022-10-15T22:41:34.408Z,4.53
2022-10-15T22:44:01.667Z,3.42
2022-10-15T22:46:31.562Z,3.85
2022-10-15T22:48:58.535Z,4.40
2022-10-15T22:51:26.028Z,4.00
2022-10-15T22:53:58.085Z,3.78
2022-10-15T22:56:26.572Z,3.50
2022-10-15T22:58:55.463Z,3.83
2022-10-15T23:01:26.361Z,3.70
2022-10-15T23:03:58.337Z,3.13
2022-10-15T23:06:26.605Z,3.43
2022-10-15T23:08:55.773Z,3.78
2022-10-15T23:11:32.998Z,4.07
2022-10-15T23:14:03.937Z,3.07
2022-10-15T23:16:34.765Z,2.93
2022-10-15T23:19:17.903Z,4.22
2022-10-15T23:21:55.985Z,3.35
2022-10-15T23:24:26.120Z,3.10
2022-10-15T23:26:53.711Z,2.95
2022-10-15T23:29:24.027Z,3.08
2022-10-15T23:31:52.061Z,2.70
2022-10-15T23:34:25.592Z,2.70
2022-10-15T23:36:53.431Z,2.80
2022-10-15T23:39:24.752Z,2.60
2022-10-15T23:41:52.057Z,2.63
2022-10-15T23:44:20.198Z,2.93
2022-10-15T23:46:47.534Z,2.85
2022-10-15T23:49:14.521Z,2.80
2022-10-15T23:51:41.732Z,3.00
2022-10-15T23:54:18.135Z,2.55
2022-10-15T23:56:48.708Z,2.70
2022-10-15T23:59:17.085Z,2.08
